Time;durP1;ratioP1;P1;durP2;ratioP2;P2;SDS_P1;SDS_P2;PMS_P1;PMS_P2;Temp;Humidity;BMP_temperature;BMP_pressure;BME280_temperature;BME280_humidity;BME280_pressure;Samples;Min_cycle;Max_cycle;Signal;HPM_P1;HPM_P2
2021/10/15 00:01:25;;;;;;;;;84.33;60.33;;;;;0.90;100.00;100338.50;6311942;20;3659769;-41
2021/10/15 00:03:54;;;;;;;;;70.33;51.00;;;;;0.97;100.00;100337.53;6315866;20;2875322;-41
2021/10/15 00:06:24;;;;;;;;;74.67;53.33;;;;;0.95;100.00;100339.34;6313773;20;3645032;-44
2021/10/15 00:08:53;;;;;;;;;68.50;51.00;;;;;1.01;100.00;100335.75;6313914;20;2868067;-42
2021/10/15 00:11:23;;;;;;;;;82.67;57.67;;;;;0.92;100.00;100341.13;6283300;20;3650222;-42
2021/10/15 00:13:52;;;;;;;;;75.67;57.33;;;;;0.71;100.00;100336.94;6315776;20;2884792;-42
2021/10/15 00:16:22;;;;;;;;;72.67;53.33;;;;;0.69;100.00;100337.00;6314663;20;2870057;-43
2021/10/15 00:18:52;;;;;;;;;77.67;57.00;;;;;0.91;100.00;100340.25;6312870;20;3652342;-42
2021/10/15 00:21:21;;;;;;;;;79.33;54.33;;;;;0.78;100.00;100338.66;6313946;20;2894324;-41
2021/10/15 00:23:51;;;;;;;;;76.33;58.00;;;;;0.79;100.00;100337.75;6315439;20;2883673;-41
2021/10/15 00:26:20;;;;;;;;;71.00;51.67;;;;;0.60;100.00;100345.88;6311685;20;2884657;-42
2021/10/15 00:28:49;;;;;;;;;61.50;47.50;;;;;0.56;100.00;100338.88;6312811;20;2853519;-42
2021/10/15 00:31:18;;;;;;;;;59.50;46.50;;;;;0.39;100.00;100339.03;6281409;20;2850977;-41
2021/10/15 00:33:47;;;;;;;;;50.00;39.33;;;;;0.43;100.00;100326.69;6282581;20;3618992;-43
2021/10/15 00:36:17;;;;;;;;;36.50;32.50;;;;;0.24;100.00;100333.00;6314477;20;2847221;-42
2021/10/15 00:38:46;;;;;;;;;49.00;37.67;;;;;0.26;100.00;100333.88;6278091;20;2867009;-43
2021/10/15 00:41:17;;;;;;;;;50.00;37.33;;;;;0.30;100.00;100340.91;6313706;20;3636664;-42
2021/10/15 00:44:07;;;;;;;;;44.67;39.33;;;;;-0.11;100.00;100334.19;6315860;20;3623232;-42
2021/10/15 00:46:37;;;;;;;;;40.00;35.50;;;;;0.13;100.00;100333.09;6307134;20;2500348;-41
2021/10/15 00:49:10;;;;;;;;;46.00;39.00;;;;;0.22;100.00;100328.63;6282558;20;2861707;-43
2021/10/15 00:51:44;;;;;;;;;46.67;40.67;;;;;0.16;100.00;100325.19;6281760;20;2868030;-44
2021/10/15 00:54:16;;;;;;;;;36.50;26.50;;;;;0.98;100.00;100330.50;6312127;20;2855436;-44
2021/10/15 00:56:45;;;;;;;;;43.00;35.50;;;;;0.71;100.00;100319.34;6282711;20;2845051;-42
2021/10/15 00:59:15;;;;;;;;;58.00;42.50;;;;;0.28;100.00;100313.63;6279207;20;2862888;-44
2021/10/15 01:01:44;;;;;;;;;50.50;41.00;;;;;0.48;100.00;100313.44;6281450;20;2868107;-42
2021/10/15 01:04:14;;;;;;;;;44.33;34.00;;;;;-0.01;100.00;100306.84;6281455;20;3613768;-41
2021/10/15 01:06:43;;;;;;;;;53.00;42.00;;;;;0.05;100.00;100309.41;6280843;20;2864824;-43
2021/10/15 01:09:12;;;;;;;;;49.50;45.00;;;;;0.22;100.00;100312.78;6277642;20;2866922;-43
2021/10/15 01:11:41;;;;;;;;;57.00;45.00;;;;;0.47;100.00;100301.97;6280127;20;2859698;-43
2021/10/15 01:14:11;;;;;;;;;60.50;45.50;;;;;0.54;100.00;100314.22;6276227;20;2508618;-41
2021/10/15 01:16:39;;;;;;;;;53.50;44.00;;;;;0.70;100.00;100304.38;6279495;20;2856534;-42
2021/10/15 01:19:07;;;;;;;;;61.00;45.00;;;;;0.81;100.00;100299.81;6277888;20;2503437;-42
2021/10/15 01:21:36;;;;;;;;;58.50;45.00;;;;;0.45;100.00;100303.78;6281825;20;2869110;-41
2021/10/15 01:24:05;;;;;;;;;57.00;46.00;;;;;0.43;100.00;100300.28;6281660;20;2869394;-42
2021/10/15 01:26:33;;;;;;;;;62.00;44.00;;;;;0.28;100.00;100305.69;6276897;20;2492984;-42
2021/10/15 01:29:02;;;;;;;;;63.00;45.50;;;;;-0.01;100.00;100304.19;6280097;20;2852354;-41
2021/10/15 01:31:30;;;;;;;;;59.50;48.00;;;;;0.11;100.00;100304.09;6281475;20;2855464;-41
2021/10/15 01:34:00;;;;;;;;;63.00;45.00;;;;;0.11;100.00;100303.22;6281466;20;2872236;-44
2021/10/15 01:36:29;;;;;;;;;62.50;47.00;;;;;0.61;100.00;100299.19;6310166;20;2862919;-42
2021/10/15 01:38:57;;;;;;;;;60.50;48.00;;;;;0.47;100.00;100304.63;6277518;20;2858594;-42
2021/10/15 01:41:26;;;;;;;;;62.50;46.00;;;;;0.59;100.00;100295.69;6280210;20;2861707;-42
2021/10/15 01:43:55;;;;;;;;;61.00;47.00;;;;;0.60;100.00;100300.94;6276666;20;2501110;-41
2021/10/15 01:46:23;;;;;;;;;59.50;47.50;;;;;0.53;100.00;100291.38;6279007;20;2863833;-42
2021/10/15 01:48:52;;;;;;;;;63.00;49.00;;;;;0.46;100.00;100294.94;6276837;20;2871196;-43
2021/10/15 01:51:21;;;;;;;;;42.00;36.00;;;;;0.56;100.00;100286.03;6279356;20;2749240;-42
2021/10/15 01:53:50;;;;;;;;;44.00;38.33;;;;;0.29;100.00;100284.56;6312022;20;2870191;-42
2021/10/15 01:56:19;;;;;;;;;59.50;43.50;;;;;0.39;100.00;100286.19;6307653;20;2869055;-43
2021/10/15 01:58:49;;;;;;;;;63.00;46.67;;;;;0.59;100.00;100291.28;6279143;20;2879462;-42
2021/10/15 02:01:18;;;;;;;;;68.33;45.67;;;;;0.09;100.00;100290.03;6308168;20;2876451;-41
2021/10/15 02:03:48;;;;;;;;;67.00;46.67;;;;;0.27;100.00;100294.28;6310514;20;2863866;-42
2021/10/15 02:06:18;;;;;;;;;63.00;44.50;;;;;0.30;100.00;100288.09;6312458;20;2864871;-42
2021/10/15 02:08:47;;;;;;;;;64.50;50.00;;;;;0.29;100.00;100294.25;6276917;20;2858576;-41
2021/10/15 02:11:17;;;;;;;;;68.67;50.00;;;;;-0.03;100.00;100290.13;6281261;20;2881499;-42
2021/10/15 02:13:45;;;;;;;;;68.50;58.50;;;;;-0.20;100.00;100292.06;6312291;20;2866928;-43
2021/10/15 02:16:14;;;;;;;;;69.00;55.00;;;;;-0.42;100.00;100286.94;6278061;20;2876324;-41
2021/10/15 02:18:43;;;;;;;;;79.00;59.00;;;;;-0.41;100.00;100288.69;6279242;20;2879439;-44
2021/10/15 02:21:13;;;;;;;;;79.33;59.67;;;;;-0.57;100.00;100287.06;6279356;20;2896720;-41
2021/10/15 02:23:43;;;;;;;;;64.00;49.00;;;;;-0.29;100.00;100272.78;6308438;20;2866946;-42
2021/10/15 02:26:18;;;;;;;;;65.00;49.00;;;;;-0.39;100.00;100272.88;6278711;20;2861702;-41
2021/10/15 02:28:48;;;;;;;;;60.00;46.50;;;;;-0.28;100.00;100269.25;6278760;20;2871084;-42
2021/10/15 02:31:18;;;;;;;;;65.33;45.67;;;;;0.26;100.00;100262.59;6274044;20;2877440;-42
2021/10/15 02:33:46;;;;;;;;;62.00;46.00;;;;;-0.20;100.00;100260.41;6308571;20;2860810;-44
2021/10/15 02:36:15;;;;;;;;;66.50;47.00;;;;;-0.35;100.00;100256.09;6278420;20;2872116;-42
2021/10/15 02:38:44;;;;;;;;;65.50;51.00;;;;;-0.21;100.00;100262.16;6280052;20;2862891;-41
2021/10/15 02:41:13;;;;;;;;;65.00;52.00;;;;;-0.17;100.00;100263.00;6280974;20;2860752;-42
2021/10/15 02:43:42;;;;;;;;;72.50;56.00;;;;;0.54;100.00;100261.41;6276114;20;2500391;-43
2021/10/15 02:46:13;;;;;;;;;72.33;52.67;;;;;0.30;100.00;100256.41;6280631;20;2874347;-42
2021/10/15 02:48:43;;;;;;;;;68.00;50.00;;;;;-0.02;100.00;100260.22;6305223;20;2500402;-41
2021/10/15 02:51:13;;;;;;;;;8.50;0.50;;;;;-0.10;100.00;100262.06;6303178;20;1834937;-42
2021/10/15 02:53:41;;;;;;;;;58.00;48.00;;;;;-0.49;100.00;100259.72;6316812;20;2843987;-41
2021/10/15 02:56:10;;;;;;;;;67.00;51.00;;;;;-0.58;100.00;100261.53;6285281;20;2874311;-42
2021/10/15 02:58:38;;;;;;;;;40.00;38.00;;;;;-0.30;100.00;100260.44;6278893;20;2504597;-42
2021/10/15 03:01:07;;;;;;;;;61.50;48.50;;;;;-0.48;100.00;100258.81;6284187;20;2872265;-42
2021/10/15 03:03:35;;;;;;;;;61.50;46.50;;;;;0.04;100.00;100252.25;6281273;20;2499213;-42
2021/10/15 03:06:03;;;;;;;;;54.00;45.00;;;;;0.20;100.00;100261.75;6282626;20;2495060;-44
2021/10/15 03:08:31;;;;;;;;;51.50;43.00;;;;;0.03;100.00;100266.34;6278613;20;2500257;-46
2021/10/15 03:11:00;;;;;;;;;53.00;43.00;;;;;-0.47;100.00;100272.91;6284116;20;2562748;-43
2021/10/15 03:13:28;;;;;;;;;56.50;43.50;;;;;-0.36;100.00;100270.19;6316118;20;2836898;-43
2021/10/15 03:15:57;;;;;;;;;57.00;45.00;;;;;-0.20;100.00;100270.94;6283418;20;2851281;-43
2021/10/15 03:18:26;;;;;;;;;53.33;43.67;;;;;0.02;100.00;100264.56;6283707;20;3598251;-42
2021/10/15 03:20:54;;;;;;;;;55.50;44.00;;;;;-0.09;100.00;100274.38;6281525;20;2503456;-43
2021/10/15 03:23:24;;;;;;;;;57.00;43.33;;;;;0.36;100.00;100267.75;6281652;20;2880537;-41
2021/10/15 03:25:52;;;;;;;;;57.50;45.00;;;;;-0.06;100.00;100269.06;6316998;20;2862773;-42
2021/10/15 03:28:21;;;;;;;;;55.00;44.00;;;;;-0.16;100.00;100268.25;6283050;20;2866934;-42
2021/10/15 03:30:51;;;;;;;;;54.67;45.00;;;;;-0.28;100.00;100263.97;6284936;20;2863908;-42
2021/10/15 03:33:19;;;;;;;;;53.00;43.00;;;;;-0.56;100.00;100267.69;6315770;20;2587898;-42
2021/10/15 03:35:48;;;;;;;;;63.00;45.50;;;;;-0.47;100.00;100268.50;6283649;20;2865900;-42
2021/10/15 03:38:18;;;;;;;;;56.33;44.00;;;;;-0.81;100.00;100273.13;6281481;20;2869135;-43
2021/10/15 03:40:49;;;;;;;;;60.00;41.00;;;;;-0.69;100.00;100262.47;6313539;20;3625252;-42
2021/10/15 03:43:17;;;;;;;;;61.50;48.50;;;;;-0.48;100.00;100260.59;6316031;20;2867944;-44
2021/10/15 03:45:47;;;;;;;;;78.67;58.33;;;;;-0.11;100.00;100253.25;6282592;20;2888832;-43
2021/10/15 03:48:16;;;;;;;;;77.00;59.00;;;;;0.25;100.00;100251.16;6313630;20;2877441;-41
2021/10/15 03:50:46;;;;;;;;;93.00;69.33;;;;;-0.20;100.00;100244.56;6280391;20;3654378;-44
2021/10/15 03:53:16;;;;;;;;;76.33;56.33;;;;;-0.06;100.00;100253.22;6312430;20;2883672;-42
2021/10/15 03:55:45;;;;;;;;;79.33;59.67;;;;;-0.47;100.00;100249.19;6314869;20;2884692;-43
2021/10/15 03:58:15;;;;;;;;;81.00;59.67;;;;;-0.73;100.00;100255.50;6313079;20;2892963;-41
2021/10/15 04:00:45;;;;;;;;;75.00;55.67;;;;;-0.05;100.00;100250.56;6311106;20;2893998;-42
2021/10/15 04:03:15;;;;;;;;;74.00;57.00;;;;;0.12;100.00;100253.03;6315178;20;2883820;-43
2021/10/15 04:05:45;;;;;;;;;79.33;57.67;;;;;-0.39;100.00;100249.13;6314165;20;3647481;-42
2021/10/15 04:08:13;;;;;;;;;69.00;54.00;;;;;-0.51;100.00;100255.34;6308274;20;2500282;-42
2021/10/15 04:10:43;;;;;;;;;69.67;52.67;;;;;-0.59;100.00;100257.16;6284133;20;2880516;-42
2021/10/15 04:13:12;;;;;;;;;66.50;49.50;;;;;-0.76;100.00;100252.03;6313735;20;2865970;-42
2021/10/15 04:15:41;;;;;;;;;65.50;51.00;;;;;-0.64;100.00;100249.28;6283450;20;2880473;-42
2021/10/15 04:18:10;;;;;;;;;68.00;53.00;;;;;-0.25;100.00;100250.75;6282575;20;2866945;-42
2021/10/15 04:20:39;;;;;;;;;65.00;52.00;;;;;-0.63;100.00;100250.16;6275219;20;2500290;-42
2021/10/15 04:23:08;;;;;;;;;66.00;50.50;;;;;-0.59;100.00;100258.03;6279692;20;2852357;-42
2021/10/15 04:25:36;;;;;;;;;69.00;52.00;;;;;-0.57;100.00;100258.91;6278344;20;2500352;-42
2021/10/15 04:28:06;;;;;;;;;68.00;50.00;;;;;-0.55;100.00;100254.50;6280996;20;2887844;-42
2021/10/15 04:30:34;;;;;;;;;59.50;44.00;;;;;-0.58;100.00;100251.00;6307533;20;2866945;-42
2021/10/15 04:33:03;;;;;;;;;68.67;49.00;;;;;-0.43;100.00;100242.97;6283079;20;2891999;-42
2021/10/15 04:35:33;;;;;;;;;74.00;55.67;;;;;0.00;100.00;100242.63;6312485;20;2882649;-43
2021/10/15 04:38:02;;;;;;;;;80.67;58.33;;;;;-0.40;100.00;100237.66;6314019;20;3641915;-43
2021/10/15 04:40:32;;;;;;;;;95.33;65.00;;;;;-0.92;100.00;100232.78;6313927;20;3654566;-42
2021/10/15 04:43:02;;;;;;;;;95.33;65.00;;;;;-0.55;100.00;100238.69;6313648;20;3648159;-43
2021/10/15 04:45:32;;;;;;;;;83.33;62.67;;;;;-0.12;100.00;100237.44;6314152;20;3662837;-41
2021/10/15 04:48:02;;;;;;;;;78.33;60.00;;;;;-0.24;100.00;100233.13;6312081;20;2888002;-43
2021/10/15 04:50:36;;;;;;;;;84.67;57.67;;;;;-0.73;100.00;100244.09;6312220;20;3654594;-44
2021/10/15 04:53:08;;;;;;;;;81.00;60.33;;;;;-0.61;100.00;100243.09;6314031;20;2887878;-43
2021/10/15 04:55:37;;;;;;;;;77.00;59.00;;;;;-1.25;100.00;100237.34;6313859;20;3633550;-42
2021/10/15 04:58:07;;;;;;;;;78.33;57.67;;;;;-0.92;100.00;100233.66;6312700;20;2894249;-42
2021/10/15 05:00:36;;;;;;;;;69.00;54.00;;;;;-0.64;100.00;100232.59;6312445;20;2871069;-42
2021/10/15 05:03:06;;;;;;;;;85.33;63.33;;;;;-0.66;100.00;100235.22;6280539;20;2891058;-42
2021/10/15 05:05:41;;;;;;;;;80.33;59.67;;;;;-0.60;100.00;100226.41;6314659;20;2898300;-43
2021/10/15 05:08:11;;;;;;;;;80.33;61.67;;;;;-0.77;100.00;100231.78;6312197;20;3636919;-41
2021/10/15 05:10:44;;;;;;;;;74.67;57.00;;;;;-0.20;100.00;100231.38;6312565;20;2874227;-44
2021/10/15 05:13:17;;;;;;;;;81.67;61.67;;;;;-0.51;100.00;100234.25;6312818;20;3646170;-43
2021/10/15 05:15:47;;;;;;;;;79.67;58.00;;;;;-0.89;100.00;100232.75;6309788;20;2891980;-44
2021/10/15 05:18:18;;;;;;;;;79.33;60.33;;;;;-0.94;100.00;100232.78;6312168;20;3645017;-46
2021/10/15 05:20:48;;;;;;;;;92.00;65.33;;;;;-1.38;100.00;100227.75;6312645;20;3654386;-42
2021/10/15 05:23:18;;;;;;;;;163.75;139.00;;;;;-1.16;100.00;100229.41;6311042;20;4495022;-43
2021/10/15 05:25:48;;;;;;;;;227.75;196.75;;;;;-0.97;100.00;100229.31;6276787;20;4487714;-41
2021/10/15 05:28:18;;;;;;;;;219.50;181.50;;;;;-0.60;100.00;100229.94;6279911;20;4484558;-45
2021/10/15 05:30:48;;;;;;;;;145.00;116.50;;;;;-0.19;100.00;100231.34;6312977;20;4488715;-42
2021/10/15 05:33:18;;;;;;;;;94.67;74.00;;;;;-0.21;100.00;100217.31;6280230;20;2889982;-43
2021/10/15 05:35:47;;;;;;;;;94.33;72.00;;;;;-0.68;100.00;100222.06;6313035;20;3650257;-41
2021/10/15 05:38:17;;;;;;;;;94.67;71.33;;;;;-0.72;100.00;100220.31;6309624;20;3648288;-43
2021/10/15 05:40:48;;;;;;;;;94.00;67.67;;;;;-0.47;100.00;100217.53;6313067;20;3657507;-44
2021/10/15 05:43:19;;;;;;;;;95.67;69.67;;;;;-0.41;100.00;100228.00;6311672;20;3665882;-44
2021/10/15 05:45:49;;;;;;;;;96.00;69.00;;;;;-0.30;100.00;100220.00;6276585;20;3662729;-41
2021/10/15 05:48:18;;;;;;;;;99.33;71.00;;;;;-0.04;100.00;100209.22;6310773;20;3661662;-42
2021/10/15 05:50:48;;;;;;;;;98.00;71.33;;;;;0.32;100.00;100207.09;6313020;20;3669072;-42
2021/10/15 05:53:19;;;;;;;;;90.33;70.33;;;;;0.40;100.00;100211.38;6278894;20;2902498;-43
2021/10/15 06:01:12;;;;;;;;;101.00;78.67;;;;;0.88;100.00;100213.41;6311637;20;3673281;-42
2021/10/15 06:03:45;;;;;;;;;103.67;74.00;;;;;0.97;100.00;100212.41;6280101;20;3670091;-42
2021/10/15 06:14:38;;;;;;;;;100.67;72.00;;;;;1.27;100.00;100219.03;6278114;20;3673144;-42
2021/10/15 06:17:11;;;;;;;;;84.33;63.00;;;;;1.33;100.00;100221.56;6312736;20;3636137;-42
2021/10/15 06:22:13;;;;;;;;;65.50;49.00;;;;;1.13;100.00;100234.22;6311609;20;2869023;-42
2021/10/15 06:24:42;;;;;;;;;63.00;45.33;;;;;1.07;100.00;100225.47;6281340;20;2891005;-42
2021/10/15 06:27:10;;;;;;;;;62.50;51.00;;;;;1.38;100.00;100214.44;6313362;20;2468021;-44
2021/10/15 06:29:39;;;;;;;;;62.50;47.50;;;;;1.30;100.00;100216.34;6284178;20;2863775;-42
2021/10/15 06:32:08;;;;;;;;;63.50;48.00;;;;;4.83;93.83;100224.38;6288104;20;2857586;-42
2021/10/15 06:34:37;;;;;;;;;46.00;43.00;;;;;9.54;66.59;100235.53;6285519;20;2836780;-43
2021/10/15 06:37:06;;;;;;;;;54.50;44.00;;;;;9.05;64.12;100234.28;6286982;20;2861739;-43
2021/10/15 06:39:35;;;;;;;;;59.33;48.00;;;;;9.44;63.13;100243.13;6283088;20;2869064;-44
2021/10/15 06:42:05;;;;;;;;;66.67;52.67;;;;;9.93;61.56;100241.69;6319515;20;2861900;-43
2021/10/15 06:44:35;;;;;;;;;51.67;40.00;;;;;10.89;60.08;100230.44;6317387;20;2863053;-44
2021/10/15 06:47:05;;;;;;;;;52.00;38.33;;;;;12.18;57.08;100242.00;6318547;20;2874560;-43
2021/10/15 06:49:35;;;;;;;;;63.67;50.33;;;;;11.41;57.55;100239.19;6319719;20;3634621;-41
2021/10/15 06:52:04;;;;;;;;;51.00;44.00;;;;;5.44;76.76;100230.50;6319245;20;2848193;-44
2021/10/15 06:54:34;;;;;;;;;64.33;47.00;;;;;4.57;85.23;100228.66;6288962;20;2871207;-43
2021/10/15 06:57:04;;;;;;;;;80.33;62.33;;;;;3.95;89.88;100224.16;6319107;20;3645148;-43
2021/10/15 06:59:34;;;;;;;;;63.67;50.00;;;;;4.64;90.60;100228.50;6287974;20;3612813;-41
2021/10/15 07:02:04;;;;;;;;;70.33;54.33;;;;;4.73;90.74;100229.09;6319663;20;2868144;-43
2021/10/15 07:04:33;;;;;;;;;59.50;49.00;;;;;5.17;90.31;100228.69;6320240;20;2850426;-41
2021/10/15 07:07:04;;;;;;;;;64.67;51.67;;;;;5.45;89.42;100234.91;6287026;20;2870374;-43
2021/10/15 07:09:32;;;;;;;;;72.00;57.00;;;;;5.47;90.30;100242.84;6318431;20;2859648;-42
2021/10/15 07:12:02;;;;;;;;;67.67;54.00;;;;;5.77;90.04;100229.47;6287807;20;3619108;-42
2021/10/15 07:14:32;;;;;;;;;59.33;46.00;;;;;5.67;89.83;100234.22;6318705;20;3611721;-42
2021/10/15 07:17:01;;;;;;;;;76.33;60.67;;;;;6.18;88.70;100225.41;6320000;20;2873188;-43
2021/10/15 07:19:30;;;;;;;;;59.50;48.00;;;;;6.35;88.90;100231.03;6319680;20;2850247;-43
2021/10/15 07:22:00;;;;;;;;;23.20;13.60;;;;;6.18;89.41;100233.41;6312637;20;2822144;-43
2021/10/15 07:24:28;;;;;;;;;56.50;47.00;;;;;5.90;90.23;100231.66;6287804;20;2862723;-42
2021/10/15 07:26:58;;;;;;;;;64.50;48.50;;;;;6.04;89.31;100235.69;6287684;20;3588815;-42
2021/10/15 07:29:27;;;;;;;;;66.00;52.33;;;;;6.39;88.67;100239.78;6316448;20;3625202;-42
2021/10/15 07:31:57;;;;;;;;;80.67;60.67;;;;;6.64;87.37;100223.78;6319583;20;3621054;-42
2021/10/15 07:34:27;;;;;;;;;91.00;65.33;;;;;6.75;89.04;100231.38;6318214;20;3666292;-42
2021/10/15 07:36:57;;;;;;;;;72.67;55.00;;;;;6.68;89.73;100224.53;6283587;20;3615859;-42
2021/10/15 07:39:25;;;;;;;;;56.50;47.00;;;;;6.77;90.05;100230.41;6316840;20;2854401;-42
2021/10/15 07:41:55;;;;;;;;;66.33;50.00;;;;;7.14;87.81;100237.00;6286217;20;3615842;-42
2021/10/15 07:44:25;;;;;;;;;68.00;52.00;;;;;7.58;86.57;100229.03;6320066;20;3627326;-41
2021/10/15 07:46:54;;;;;;;;;71.67;53.00;;;;;7.71;84.91;100234.72;6317014;20;3649225;-41
2021/10/15 07:49:24;;;;;;;;;69.33;53.00;;;;;7.56;86.09;100230.91;6317156;20;2885940;-43
2021/10/15 07:51:53;;;;;;;;;59.33;48.00;;;;;7.72;85.74;100224.94;6317449;20;2862842;-42
2021/10/15 07:54:23;;;;;;;;;64.67;49.33;;;;;8.13;85.90;100237.41;6318718;20;3624344;-42
2021/10/15 07:56:53;;;;;;;;;65.33;48.00;;;;;7.47;88.92;100232.13;6317377;20;3641912;-42
2021/10/15 07:59:22;;;;;;;;;62.00;49.00;;;;;7.90;87.39;100225.03;6318181;20;2863836;-41
2021/10/15 08:01:52;;;;;;;;;58.00;48.00;;;;;8.47;85.09;100235.97;6317718;20;2864868;-42
2021/10/15 08:04:22;;;;;;;;;66.00;50.67;;;;;8.28;86.70;100227.00;6318965;20;3631473;-42
2021/10/15 08:06:51;;;;;;;;;64.00;50.67;;;;;8.63;83.14;100225.47;6318235;20;3644084;-41
2021/10/15 08:09:21;;;;;;;;;62.67;49.67;;;;;8.41;84.13;100225.56;6317765;20;3622625;-42
2021/10/15 08:11:51;;;;;;;;;69.33;56.67;;;;;8.93;82.44;100228.56;6317734;20;3604393;-41
2021/10/15 08:14:22;;;;;;;;;68.33;55.00;;;;;8.84;81.89;100231.66;6316880;20;3624194;-42
2021/10/15 08:16:52;;;;;;;;;69.67;52.67;;;;;8.95;81.76;100231.16;6318122;20;3638834;-42
2021/10/15 08:19:40;;;;;;;;;67.33;53.33;;;;;9.29;81.59;100227.78;6315615;20;3613803;-43
2021/10/15 08:22:10;;;;;;;;;66.33;51.00;;;;;9.34;81.86;100228.44;6318081;20;3624294;-42
2021/10/15 08:24:40;;;;;;;;;129.00;111.00;;;;;9.35;82.55;100224.81;6317632;20;3710661;-43
2021/10/15 08:27:09;;;;;;;;;70.67;56.00;;;;;9.30;82.68;100224.16;6285791;20;2881618;-42
2021/10/15 08:29:39;;;;;;;;;55.00;44.33;;;;;9.79;79.74;100224.44;6318512;20;2861803;-42
2021/10/15 08:32:09;;;;;;;;;57.00;46.00;;;;;9.84;79.50;100226.91;6317063;20;3608599;-42
2021/10/15 08:34:38;;;;;;;;;61.33;49.00;;;;;9.62;80.43;100227.97;6320914;20;3622211;-42
2021/10/15 08:37:08;;;;;;;;;51.33;40.33;;;;;10.29;78.96;100228.22;6285961;20;2859622;-42
2021/10/15 08:39:37;;;;;;;;;57.67;43.33;;;;;10.13;78.49;100225.44;6316299;20;3616879;-45
2021/10/15 08:42:07;;;;;;;;;59.67;47.00;;;;;10.41;79.02;100226.75;6317342;20;3631564;-42
2021/10/15 08:44:42;;;;;;;;;53.00;43.00;;;;;10.51;76.68;100231.53;6317930;20;3600630;-42
2021/10/15 08:47:17;;;;;;;;;51.33;40.33;;;;;10.65;76.79;100233.50;6281609;20;2861726;-42
2021/10/15 08:50:06;;;;;;;;;51.00;43.00;;;;;9.95;75.44;100229.03;6316100;20;2859818;-43
2021/10/15 08:52:36;;;;;;;;;51.00;43.00;;;;;10.55;74.24;100226.88;6283825;20;2858818;-42
2021/10/15 08:55:05;;;;;;;;;47.00;40.67;;;;;10.83;74.13;100223.59;6318898;20;3576279;-41
2021/10/15 08:57:35;;;;;;;;;54.33;45.00;;;;;10.73;75.21;100228.56;6285110;20;2858635;-42
2021/10/15 09:00:32;;;;;;;;;58.00;45.00;;;;;10.94;73.70;100217.63;6319462;20;3624282;-44
2021/10/15 09:03:23;;;;;;;;;47.00;39.00;;;;;11.47;74.58;100218.28;6281832;20;2855506;-43
2021/10/15 09:05:58;;;;;;;;;54.67;41.67;;;;;11.07;73.87;100217.81;6320513;20;3600280;-43
2021/10/15 09:08:50;;;;;;;;;50.33;39.33;;;;;11.02;73.61;100211.84;6285821;20;2864875;-43
2021/10/15 09:11:46;;;;;;;;;52.67;41.67;;;;;11.56;72.81;100215.09;6315333;20;3627384;-46
2021/10/15 09:14:21;;;;;;;;;43.33;37.00;;;;;11.33;73.13;100211.00;6320049;20;3617972;-43
2021/10/15 09:16:53;;;;;;;;;48.00;39.00;;;;;11.29;70.50;100204.03;6285554;20;2845189;-43
2021/10/15 09:19:36;;;;;;;;;46.67;36.67;;;;;11.59;69.23;100209.53;6281851;20;3609633;-43
2021/10/15 09:22:25;;;;;;;;;44.00;38.00;;;;;11.43;71.29;100206.84;6319745;20;3577333;-42
2021/10/15 09:25:08;;;;;;;;;48.00;38.00;;;;;11.74;70.34;100199.69;6284277;20;2846193;-43
2021/10/15 09:27:43;;;;;;;;;40.33;34.33;;;;;11.87;68.77;100206.13;6282973;20;3605489;-44
2021/10/15 09:30:23;;;;;;;;;43.00;36.00;;;;;11.84;69.33;100207.13;6286551;20;3593005;-44
2021/10/15 09:32:59;;;;;;;;;40.00;33.33;;;;;11.78;68.61;100201.25;6319695;20;3604445;-43
2021/10/15 09:35:32;;;;;;;;;45.33;38.00;;;;;11.39;68.95;100194.50;6289744;20;3607523;-43
2021/10/15 09:38:09;;;;;;;;;29.33;26.00;;;;;12.08;67.43;100183.34;6284095;20;3595043;-42
2021/10/15 09:40:43;;;;;;;;;39.00;34.67;;;;;12.49;67.11;100193.41;6286864;20;3609695;-43
2021/10/15 09:43:14;;;;;;;;;45.33;35.33;;;;;11.60;67.88;100179.84;6287718;20;3623247;-42
2021/10/15 09:45:53;;;;;;;;;38.00;32.00;;;;;11.98;68.45;100179.47;6284172;20;2838923;-42
2021/10/15 09:48:26;;;;;;;;;46.33;34.33;;;;;12.44;67.29;100179.34;6285266;20;3596215;-43
2021/10/15 09:51:20;;;;;;;;;27.67;27.33;;;;;11.98;66.82;100171.38;6316875;20;3600380;-42
2021/10/15 09:54:14;;;;;;;;;41.33;35.00;;;;;12.07;65.54;100164.56;6287116;20;3571158;-42
2021/10/15 09:56:51;;;;;;;;;31.00;27.50;;;;;12.17;66.08;100154.13;6314555;20;2829450;-43
2021/10/15 09:59:21;;;;;;;;;66.67;49.00;;;;;12.10;65.38;100160.84;6280878;20;3653361;-42
2021/10/15 10:01:50;;;;;;;;;43.33;36.00;;;;;11.56;66.05;100154.09;6316504;20;3612827;-42
2021/10/15 10:04:19;;;;;;;;;36.00;32.00;;;;;12.55;65.70;100158.97;6282250;20;2835778;-43
2021/10/15 10:06:49;;;;;;;;;32.67;31.33;;;;;12.66;64.32;100153.78;6281987;20;3602349;-43
2021/10/15 10:09:19;;;;;;;;;35.00;29.00;;;;;12.33;65.00;100146.84;6314848;20;3609608;-42
2021/10/15 10:11:48;;;;;;;;;34.33;32.00;;;;;12.59;63.98;100141.69;6280859;20;2857633;-41
2021/10/15 10:14:18;;;;;;;;;36.67;32.67;;;;;12.38;64.28;100142.03;6315477;20;3612764;-43
2021/10/15 10:16:53;;;;;;;;;38.00;31.33;;;;;12.69;63.31;100134.72;6283937;20;3613883;-42
2021/10/15 10:19:23;;;;;;;;;35.67;30.00;;;;;12.59;63.03;100138.97;6313186;20;3601279;-43
2021/10/15 10:21:52;;;;;;;;;31.67;29.00;;;;;12.40;62.90;100134.75;6282756;20;3596081;-40
2021/10/15 10:24:27;;;;;;;;;30.67;28.00;;;;;12.31;62.67;100124.53;6282249;20;3603394;-40
2021/10/15 10:26:57;;;;;;;;;37.67;32.00;;;;;12.46;62.95;100123.56;6283212;20;3608600;-40
2021/10/15 10:29:27;;;;;;;;;37.67;34.67;;;;;12.33;63.65;100119.91;6281833;20;3604415;-42
2021/10/15 10:32:18;;;;;;;;;29.33;27.33;;;;;12.36;63.30;100119.72;6283309;20;3598520;-43
2021/10/15 10:34:47;;;;;;;;;32.00;25.00;;;;;12.73;64.79;100114.72;6283555;20;2846076;-43
2021/10/15 10:37:19;;;;;;;;;30.00;26.00;;;;;12.49;61.87;100118.00;6280381;20;2852353;-42
2021/10/15 10:40:09;;;;;;;;;29.00;28.67;;;;;12.27;62.83;100112.22;6283561;20;3586818;-43
2021/10/15 10:43:05;;;;;;;;;25.00;24.00;;;;;12.54;62.29;100108.78;6314742;20;3577358;-46
2021/10/15 10:45:34;;;;;;;;;29.33;27.00;;;;;12.69;62.30;100103.28;6316156;20;3598240;-42
2021/10/15 10:48:06;;;;;;;;;29.33;25.33;;;;;12.71;60.15;100103.16;6283627;20;3585797;-41
2021/10/15 10:50:35;;;;;;;;;26.50;25.50;;;;;12.52;62.18;100098.09;6283002;20;2848191;-44
2021/10/15 10:53:08;;;;;;;;;28.00;25.00;;;;;12.76;63.44;100092.97;6279956;20;2848208;-43
2021/10/15 10:55:47;;;;;;;;;29.67;28.33;;;;;12.52;61.60;100096.25;6280885;20;2856588;-42
2021/10/15 10:58:36;;;;;;;;;30.00;27.00;;;;;12.81;62.40;100093.53;6316566;20;3593008;-42
2021/10/15 11:01:27;;;;;;;;;29.00;27.00;;;;;12.82;61.59;100097.09;6278073;20;2852551;-41
2021/10/15 11:03:59;;;;;;;;;31.33;28.00;;;;;12.85;61.68;100089.69;6314076;20;3598134;-42
2021/10/15 11:07:06;;;;;;;;;23.50;21.50;;;;;12.86;60.51;100088.72;6283857;20;2823160;-43
2021/10/15 11:09:57;;;;;;;;;34.67;32.00;;;;;12.83;60.70;100078.13;6283622;20;3614975;-42
2021/10/15 11:12:27;;;;;;;;;34.67;27.00;;;;;12.22;62.12;100068.56;6317988;20;3600236;-42
2021/10/15 11:15:00;;;;;;;;;26.33;26.00;;;;;12.95;59.93;100069.25;6322681;20;3585034;-42
2021/10/15 11:17:47;;;;;;;;;33.67;29.00;;;;;12.79;61.22;100064.94;6288361;20;3607639;-43
2021/10/15 11:20:35;;;;;;;;;28.33;27.67;;;;;13.07;60.38;100069.41;6289964;20;3594022;-42
2021/10/15 11:23:11;;;;;;;;;31.33;28.33;;;;;13.25;61.46;100062.81;6285883;20;2860770;-42
2021/10/15 11:25:47;;;;;;;;;26.67;24.00;;;;;13.41;59.49;100065.38;6320519;20;3601334;-42
2021/10/15 11:28:20;;;;;;;;;26.00;25.00;;;;;12.84;57.55;100062.81;6286945;20;2832533;-42